createdAt,value
2022-12-09T00:00:32.487Z,62.17
2022-12-09T00:02:59.694Z,59.55
2022-12-09T00:05:26.719Z,61.45
2022-12-09T00:07:54.074Z,62.38
2022-12-09T00:10:21.254Z,63.75
2022-12-09T00:12:48.313Z,61.90
2022-12-09T00:15:15.666Z,65.38
2022-12-09T00:17:42.856Z,64.95
2022-12-09T00:20:10.963Z,69.47
2022-12-09T00:22:38.868Z,69.35
2022-12-09T00:25:06.842Z,70.95
2022-12-09T00:27:33.922Z,72.13
2022-12-09T00:30:01.259Z,70.63
2022-12-09T00:32:28.587Z,70.93
2022-12-09T00:34:55.810Z,72.32
2022-12-09T00:37:23.040Z,69.00
2022-12-09T00:39:50.315Z,67.95
2022-12-09T00:42:17.151Z,71.13
2022-12-09T00:44:46.514Z,70.93
2022-12-09T00:47:13.497Z,72.57
2022-12-09T00:49:40.455Z,76.68
2022-12-09T00:52:07.510Z,76.20
2022-12-09T00:54:34.582Z,76.10
2022-12-09T00:57:01.726Z,87.88
2022-12-09T00:59:28.694Z,80.55
2022-12-09T01:01:57.726Z,82.40
2022-12-09T01:04:25.574Z,80.43
2022-12-09T01:06:52.884Z,77.65
2022-12-09T01:09:20.247Z,77.45
2022-12-09T01:11:47.439Z,81.57
2022-12-09T01:14:14.507Z,78.78
2022-12-09T01:16:41.555Z,83.55
2022-12-09T01:19:13.639Z,88.07
2022-12-09T01:21:40.888Z,86.05
2022-12-09T01:24:11.743Z,86.18
2022-12-09T01:26:39.377Z,90.10
2022-12-09T01:29:06.367Z,87.32
2022-12-09T01:31:33.404Z,84.30
2022-12-09T01:34:02.784Z,82.57
2022-12-09T01:36:30.535Z,81.53
2022-12-09T01:39:00.196Z,82.45
2022-12-09T01:41:28.108Z,83.22
2022-12-09T01:44:27.461Z,85.60
2022-12-09T01:46:56.638Z,82.47
2022-12-09T01:49:31.857Z,81.95
2022-12-09T01:52:05.989Z,83.80
2022-12-09T01:54:34.141Z,82.85
2022-12-09T01:57:03.014Z,80.55
2022-12-09T01:59:31.411Z,87.97
2022-12-09T02:02:01.871Z,88.18
2022-12-09T02:04:32.863Z,84.18
2022-12-09T02:07:04.544Z,70.82
2022-12-09T02:09:32.238Z,56.45
2022-12-09T02:11:59.566Z,61.55
2022-12-09T02:14:40.645Z,67.63
2022-12-09T02:17:37.167Z,74.55
2022-12-09T02:20:21.164Z,78.00
2022-12-09T02:22:56.158Z,91.38
2022-12-09T02:25:43.842Z,77.28
2022-12-09T02:28:52.710Z,75.35
2022-12-09T02:31:27.298Z,76.60
2022-12-09T02:34:11.640Z,75.07
2022-12-09T02:37:16.360Z,75.80
2022-12-09T02:39:56.594Z,81.30
2022-12-09T02:42:29.545Z,84.18
2022-12-09T02:44:58.949Z,85.18
2022-12-09T02:47:29.894Z,79.60
2022-12-09T02:50:02.287Z,81.72
2022-12-09T02:52:32.115Z,81.47
2022-12-09T02:55:04.239Z,81.85
2022-12-09T02:57:34.624Z,83.47
2022-12-09T03:00:02.716Z,82.70
2022-12-09T03:02:34.839Z,82.50
2022-12-09T03:05:08.719Z,82.97
2022-12-09T03:07:44.230Z,82.28
2022-12-09T03:10:18.827Z,83.22
2022-12-09T03:12:57.206Z,83.72
2022-12-09T03:15:28.197Z,84.18
2022-12-09T03:17:58.577Z,85.35
2022-12-09T03:20:30.380Z,82.30
2022-12-09T03:23:00.990Z,77.00
2022-12-09T03:25:36.144Z,75.10
2022-12-09T03:28:07.453Z,66.97
2022-12-09T03:30:39.696Z,78.15
2022-12-09T03:33:09.491Z,80.00
2022-12-09T03:35:41.657Z,82.78
2022-12-09T03:38:13.311Z,82.88
2022-12-09T03:40:43.195Z,79.68
2022-12-09T03:43:19.153Z,81.22
2022-12-09T03:45:47.210Z,71.43
2022-12-09T03:48:14.780Z,72.07
2022-12-09T03:51:08.725Z,67.18
2022-12-09T03:53:44.450Z,64.15
2022-12-09T03:56:23.254Z,65.35
2022-12-09T03:58:54.391Z,61.30
2022-12-09T04:01:25.164Z,63.45
2022-12-09T04:03:55.317Z,64.22
2022-12-09T04:06:22.727Z,63.95
2022-12-09T04:08:50.424Z,59.90
2022-12-09T04:11:17.719Z,57.38
2022-12-09T04:13:44.903Z,54.30
2022-12-09T04:16:12.375Z,54.42
2022-12-09T04:18:40.052Z,52.65
2022-12-09T04:21:09.738Z,53.35
2022-12-09T04:23:42.485Z,50.25
2022-12-09T04:26:19.871Z,49.13
2022-12-09T04:28:48.272Z,48.15
2022-12-09T04:31:17.333Z,47.13
2022-12-09T04:33:45.258Z,47.03
2022-12-09T04:36:15.926Z,47.88
2022-12-09T04:38:43.725Z,47.08
2022-12-09T04:41:11.240Z,47.92
2022-12-09T04:43:38.428Z,47.42
2022-12-09T04:46:07.660Z,50.30
2022-12-09T04:48:34.997Z,50.83
2022-12-09T04:51:02.102Z,57.55
2022-12-09T04:53:29.292Z,54.58
2022-12-09T04:56:04.986Z,53.88
2022-12-09T05:01:13.755Z,56.53
2022-12-09T05:03:41.307Z,55.80
2022-12-09T05:06:13.262Z,57.03
2022-12-09T05:08:41.440Z,57.80
2022-12-09T05:11:09.266Z,56.35
2022-12-09T05:13:37.004Z,58.75
2022-12-09T05:16:13.888Z,58.00
2022-12-09T05:18:43.222Z,49.97
2022-12-09T05:21:13.253Z,54.92
2022-12-09T05:23:41.734Z,54.20
2022-12-09T05:26:12.671Z,48.58
2022-12-09T05:28:40.255Z,46.88
2022-12-09T05:31:11.638Z,47.00
2022-12-09T05:33:38.881Z,48.00
2022-12-09T05:36:10.528Z,48.58
2022-12-09T05:38:37.619Z,47.50
2022-12-09T05:41:05.317Z,47.83
2022-12-09T05:43:33.943Z,46.10
2022-12-09T05:46:04.868Z,47.15
2022-12-09T05:48:32.484Z,52.05
2022-12-09T05:51:04.746Z,58.72
2022-12-09T05:53:33.551Z,56.80
2022-12-09T05:56:00.879Z,57.17
2022-12-09T05:58:28.260Z,57.53
2022-12-09T06:00:57.314Z,57.97
2022-12-09T06:03:25.389Z,58.67
2022-12-09T06:05:52.687Z,58.10
2022-12-09T06:08:21.311Z,57.45
2022-12-09T06:10:48.856Z,57.33
2022-12-09T06:13:16.585Z,57.65
2022-12-09T06:15:44.065Z,58.60
2022-12-09T06:18:12.061Z,64.78
2022-12-09T06:20:41.693Z,58.20
2022-12-09T06:23:09.239Z,46.75
2022-12-09T06:25:36.998Z,66.80
2022-12-09T06:28:06.176Z,77.00
2022-12-09T06:30:33.195Z,64.63
2022-12-09T06:33:00.711Z,66.13
2022-12-09T06:35:28.503Z,65.68
2022-12-09T06:37:55.865Z,66.38
2022-12-09T06:40:22.908Z,77.68
2022-12-09T06:42:54.271Z,77.45
2022-12-09T06:45:21.767Z,78.15
2022-12-09T06:47:49.334Z,72.25
2022-12-09T06:50:16.875Z,77.05
2022-12-09T06:52:44.168Z,73.78
2022-12-09T06:55:11.458Z,74.65
2022-12-09T06:57:38.917Z,73.85
2022-12-09T07:00:06.652Z,72.30
2022-12-09T07:02:36.765Z,73.78
2022-12-09T07:05:04.791Z,73.72
2022-12-09T07:07:33.191Z,72.63
2022-12-09T07:10:04.844Z,75.25
2022-12-09T07:12:32.170Z,76.20
2022-12-09T07:14:59.410Z,74.72
2022-12-09T07:17:26.988Z,74.32
2022-12-09T07:19:54.174Z,70.18
2022-12-09T07:22:21.048Z,72.97
2022-12-09T07:24:48.189Z,72.18
2022-12-09T07:27:19.579Z,66.88
2022-12-09T07:29:47.233Z,65.47
2022-12-09T07:32:14.827Z,67.63
2022-12-09T07:34:43.059Z,69.90
2022-12-09T07:37:10.254Z,67.75
2022-12-09T07:39:37.548Z,64.28
2022-12-09T07:42:05.206Z,66.75
2022-12-09T07:44:44.306Z,66.57
2022-12-09T07:47:11.655Z,63.72
2022-12-09T07:49:39.041Z,64.70
2022-12-09T07:52:06.406Z,64.50
2022-12-09T07:54:33.754Z,65.85
2022-12-09T07:57:01.059Z,62.78
2022-12-09T07:59:27.912Z,62.35
2022-12-09T08:01:54.950Z,62.03
2022-12-09T08:04:22.622Z,60.72
2022-12-09T08:06:50.134Z,59.63
2022-12-09T08:09:17.603Z,63.00
2022-12-09T08:11:44.739Z,65.28
2022-12-09T08:14:13.449Z,68.63
2022-12-09T08:16:43.241Z,65.93
2022-12-09T08:19:12.134Z,67.00
2022-12-09T08:21:39.817Z,62.38
2022-12-09T08:24:08.068Z,61.28
2022-12-09T08:26:37.608Z,62.80
2022-12-09T08:29:12.455Z,59.25
2022-12-09T08:31:42.374Z,61.38
2022-12-09T08:34:09.979Z,63.97
2022-12-09T08:36:37.358Z,65.32
2022-12-09T08:39:05.115Z,65.32
2022-12-09T08:41:38.881Z,70.30
2022-12-09T08:44:16.182Z,70.68
2022-12-09T08:46:50.247Z,67.85
2022-12-09T08:49:20.304Z,69.95
2022-12-09T08:51:49.396Z,68.70
2022-12-09T08:54:16.681Z,58.25
2022-12-09T08:56:48.700Z,63.90
2022-12-09T08:59:18.506Z,59.30
2022-12-09T09:01:45.920Z,58.85
2022-12-09T09:04:16.455Z,58.05
2022-12-09T09:06:46.787Z,55.58
2022-12-09T09:09:15.122Z,55.35
2022-12-09T09:11:43.961Z,55.05
2022-12-09T09:14:12.700Z,52.42
2022-12-09T09:16:42.048Z,45.70
2022-12-09T09:19:33.512Z,42.95
2022-12-09T09:22:01.336Z,42.72
2022-12-09T09:24:30.168Z,41.00
2022-12-09T09:27:01.546Z,45.53
2022-12-09T09:29:28.870Z,46.78
2022-12-09T09:31:57.571Z,46.33
2022-12-09T09:34:28.940Z,43.95
2022-12-09T09:36:57.097Z,40.63
2022-12-09T09:39:25.684Z,37.80
2022-12-09T09:42:08.314Z,39.95
2022-12-09T09:44:40.180Z,38.67
2022-12-09T09:47:39.917Z,37.53
2022-12-09T09:50:20.426Z,36.72
2022-12-09T09:52:48.001Z,34.97
2022-12-09T09:55:23.936Z,35.35
2022-12-09T09:58:01.564Z,34.97
2022-12-09T10:00:47.592Z,35.65
2022-12-09T10:03:48.822Z,35.63
2022-12-09T10:06:25.895Z,35.53
2022-12-09T10:09:00.412Z,35.40
2022-12-09T10:12:01.084Z,30.48
2022-12-09T10:14:34.172Z,30.85
2022-12-09T10:17:10.670Z,32.72
2022-12-09T10:19:51.261Z,30.40
2022-12-09T10:22:23.913Z,28.40
2022-12-09T10:24:58.088Z,27.23
2022-12-09T10:27:36.014Z,26.55
2022-12-09T10:30:19.834Z,27.35
2022-12-09T10:32:47.590Z,26.35
2022-12-09T10:35:16.650Z,28.88
2022-12-09T10:37:44.573Z,29.85
2022-12-09T10:40:17.984Z,29.88
2022-12-09T10:43:15.999Z,29.50
2022-12-09T10:46:16.778Z,28.55
2022-12-09T10:48:51.296Z,30.20
2022-12-09T10:51:25.974Z,26.92
2022-12-09T10:53:58.170Z,26.60
2022-12-09T10:56:34.171Z,27.33
2022-12-09T10:59:19.495Z,28.08
2022-12-09T11:01:54.753Z,29.02
2022-12-09T11:04:33.927Z,20.73
2022-12-09T11:07:05.391Z,18.98
2022-12-09T11:09:36.814Z,18.90
2022-12-09T11:12:07.790Z,20.92
2022-12-09T11:14:40.805Z,18.52
2022-12-09T11:17:18.717Z,20.90
2022-12-09T11:19:51.439Z,21.38
2022-12-09T11:22:41.051Z,19.92
2022-12-09T11:25:17.490Z,19.23
2022-12-09T11:28:04.803Z,19.75
2022-12-09T11:31:19.865Z,18.48
2022-12-09T11:33:48.241Z,17.23
2022-12-09T11:36:24.960Z,18.08
2022-12-09T11:39:07.170Z,17.27
2022-12-09T11:41:53.836Z,17.85
2022-12-09T11:44:27.083Z,19.27
2022-12-09T11:46:58.031Z,17.55
2022-12-09T11:49:27.183Z,19.67
2022-12-09T11:52:07.843Z,19.65
2022-12-09T11:54:48.529Z,19.45
2022-12-09T11:57:27.560Z,20.30
2022-12-09T11:59:59.506Z,20.50
2022-12-09T12:02:44.421Z,20.35
2022-12-09T12:05:22.039Z,18.73
2022-12-09T12:07:52.665Z,19.65
2022-12-09T12:10:25.276Z,20.40
2022-12-09T12:13:19.127Z,18.58
2022-12-09T12:16:07.789Z,17.33
2022-12-09T12:19:03.656Z,17.73
2022-12-09T12:21:49.372Z,17.63
2022-12-09T12:25:05.996Z,19.02
2022-12-09T12:27:33.922Z,18.90
2022-12-09T12:30:09.141Z,20.35
2022-12-09T12:33:40.700Z,18.80
2022-12-09T12:36:14.466Z,19.27
2022-12-09T12:39:06.039Z,21.15
2022-12-09T12:41:52.431Z,20.63
2022-12-09T12:51:46.352Z,17.25
2022-12-09T12:55:00.189Z,15.90
2022-12-09T12:57:32.987Z,16.17
2022-12-09T13:00:07.378Z,16.50
2022-12-09T13:02:55.446Z,16.00
2022-12-09T13:05:37.469Z,18.05
2022-12-09T13:08:09.688Z,16.58
2022-12-09T13:10:59.098Z,16.65
2022-12-09T13:13:31.357Z,15.20
2022-12-09T13:16:15.661Z,16.52
2022-12-09T13:18:43.510Z,15.35
2022-12-09T13:21:11.995Z,16.05
2022-12-09T13:23:44.981Z,14.68
2022-12-09T13:26:45.473Z,15.73
2022-12-09T13:29:44.163Z,16.50
2022-12-09T13:32:45.141Z,19.67
2022-12-09T13:35:17.780Z,17.40
2022-12-09T13:37:45.148Z,18.50
2022-12-09T13:40:20.787Z,18.08
2022-12-09T13:43:03.005Z,19.98
2022-12-09T13:45:44.906Z,19.70
2022-12-09T13:48:16.985Z,19.50
2022-12-09T13:50:58.268Z,18.33
2022-12-09T13:53:45.786Z,19.25
2022-12-09T13:56:16.952Z,18.55
2022-12-09T13:59:06.801Z,18.60
2022-12-09T14:01:46.060Z,20.08
2022-12-09T14:04:23.933Z,27.27
2022-12-09T14:07:15.244Z,27.60
2022-12-09T14:09:49.819Z,35.67
2022-12-09T14:12:25.791Z,37.95
2022-12-09T14:15:26.450Z,34.75
2022-12-09T14:18:00.663Z,37.83
2022-12-09T14:20:31.967Z,32.72
2022-12-09T14:23:16.962Z,30.73
2022-12-09T14:26:03.533Z,36.53
2022-12-09T14:28:51.783Z,37.00
2022-12-09T14:31:58.245Z,37.72
2022-12-09T14:34:32.701Z,34.83
2022-12-09T14:37:19.697Z,37.15
2022-12-09T14:39:58.673Z,36.55
2022-12-09T14:42:43.494Z,38.15
2022-12-09T14:45:13.379Z,35.30
2022-12-09T14:47:44.994Z,36.38
2022-12-09T14:50:24.092Z,36.95
2022-12-09T14:53:05.018Z,36.20
2022-12-09T14:55:38.907Z,37.58
2022-12-09T14:58:07.038Z,38.83
2022-12-09T15:00:39.094Z,37.55
2022-12-09T15:03:37.999Z,38.85
2022-12-09T15:06:07.089Z,38.15
2022-12-09T15:08:39.585Z,41.72
2022-12-09T15:11:18.409Z,42.42
2022-12-09T15:13:48.468Z,40.22
2022-12-09T15:16:25.697Z,39.15
2022-12-09T15:18:55.035Z,44.28
2022-12-09T15:21:31.031Z,43.10
2022-12-09T15:24:00.380Z,42.17
2022-12-09T15:26:29.669Z,43.00
2022-12-09T15:28:57.563Z,43.92
2022-12-09T15:31:27.604Z,44.15
2022-12-09T15:33:57.455Z,47.90
2022-12-09T15:36:29.323Z,45.20
2022-12-09T15:39:02.743Z,47.13
2022-12-09T15:41:57.378Z,45.78
2022-12-09T15:44:27.069Z,47.80
2022-12-09T15:46:56.119Z,47.00
2022-12-09T15:49:32.427Z,45.65
2022-12-09T15:52:02.488Z,47.88
2022-12-09T15:54:41.560Z,43.47
2022-12-09T15:57:15.107Z,43.25
2022-12-09T15:59:52.361Z,42.67
2022-12-09T16:02:27.062Z,44.90
2022-12-09T16:04:58.624Z,44.88
2022-12-09T16:07:25.478Z,41.50
2022-12-09T16:10:12.810Z,47.03
2022-12-09T16:12:43.251Z,44.83
2022-12-09T16:15:14.974Z,46.55
2022-12-09T16:17:56.726Z,46.90
2022-12-09T16:20:36.012Z,46.40
2022-12-09T16:23:05.004Z,50.35
2022-12-09T16:25:44.854Z,56.58
2022-12-09T16:28:26.707Z,56.97
2022-12-09T16:30:59.681Z,52.28
2022-12-09T16:33:27.828Z,48.90
2022-12-09T16:36:06.233Z,47.95
2022-12-09T16:38:34.944Z,49.00
2022-12-09T16:41:05.961Z,49.28
2022-12-09T16:43:34.010Z,50.78
2022-12-09T16:46:14.823Z,53.03
2022-12-09T16:48:42.644Z,48.05
2022-12-09T16:51:15.735Z,51.42
2022-12-09T16:53:44.180Z,50.63
2022-12-09T16:56:19.695Z,59.45
2022-12-09T16:58:46.735Z,65.30
2022-12-09T17:01:15.855Z,64.88
2022-12-09T17:03:52.701Z,67.47
2022-12-09T17:06:20.941Z,72.57
2022-12-09T17:08:48.071Z,60.67
2022-12-09T17:11:17.585Z,64.72
2022-12-09T17:13:44.512Z,63.80
2022-12-09T17:16:11.763Z,60.22
2022-12-09T17:18:39.804Z,62.00
2022-12-09T17:21:13.582Z,61.70
2022-12-09T17:23:42.259Z,49.92
2022-12-09T17:26:14.216Z,63.80
2022-12-09T17:28:43.399Z,57.03
2022-12-09T17:31:16.161Z,44.13
2022-12-09T17:33:46.426Z,55.67
2022-12-09T17:36:15.113Z,56.13
2022-12-09T17:38:42.442Z,55.45
2022-12-09T17:41:19.340Z,59.15
2022-12-09T17:46:14.387Z,54.70
2022-12-09T17:48:42.286Z,47.58
2022-12-09T17:51:11.839Z,45.85
2022-12-09T17:53:40.933Z,56.33
2022-12-09T17:56:10.714Z,51.95
2022-12-09T17:58:38.689Z,50.70
2022-12-09T18:01:12.109Z,46.97
2022-12-09T18:03:55.520Z,39.30
2022-12-09T18:06:29.213Z,49.08
2022-12-09T18:08:56.340Z,43.13
2022-12-09T18:11:23.547Z,49.47
2022-12-09T18:13:51.377Z,43.03
2022-12-09T18:16:18.926Z,50.08
2022-12-09T18:18:46.531Z,41.30
2022-12-09T18:21:16.379Z,43.63
2022-12-09T18:23:44.199Z,44.20
2022-12-09T18:26:16.860Z,44.72
2022-12-09T18:28:44.218Z,46.38
2022-12-09T18:31:17.234Z,45.92
2022-12-09T18:33:45.511Z,47.17
2022-12-09T18:36:15.385Z,44.80
2022-12-09T18:38:43.090Z,46.25
2022-12-09T18:41:16.445Z,54.25
2022-12-09T18:43:46.322Z,53.60
2022-12-09T18:46:21.348Z,50.33
2022-12-09T18:49:02.164Z,54.75
2022-12-09T18:51:29.619Z,53.50
2022-12-09T18:54:00.720Z,51.25
2022-12-09T18:56:28.334Z,62.38
2022-12-09T18:59:11.513Z,62.05
2022-12-09T19:01:41.631Z,57.55
2022-12-09T19:04:21.388Z,60.70
2022-12-09T19:06:50.411Z,62.15
2022-12-09T19:09:25.816Z,63.50
2022-12-09T19:11:53.107Z,60.17
2022-12-09T19:14:22.885Z,59.70
2022-12-09T19:16:51.426Z,65.00
2022-12-09T19:19:21.287Z,90.57
2022-12-09T19:21:48.740Z,75.35
2022-12-09T19:24:41.316Z,76.38
2022-12-09T19:27:09.893Z,86.97
2022-12-09T19:29:37.311Z,95.65
2022-12-09T19:32:07.580Z,101.82
2022-12-09T19:34:41.036Z,113.00
2022-12-09T19:37:07.917Z,102.90
2022-12-09T19:39:34.801Z,107.85
2022-12-09T19:42:01.893Z,100.00
2022-12-09T19:44:59.396Z,86.20
2022-12-09T19:47:15.607Z,63.83
2022-12-09T19:49:44.411Z,65.72
2022-12-09T19:52:12.807Z,62.70
2022-12-09T19:54:39.832Z,62.35
2022-12-09T19:57:06.787Z,59.88
2022-12-09T19:59:34.124Z,56.80
2022-12-09T20:02:01.510Z,54.47
2022-12-09T20:07:20.160Z,53.33
2022-12-09T20:09:47.577Z,55.08
2022-12-09T20:12:14.868Z,55.42
2022-12-09T20:14:42.342Z,54.72
2022-12-09T20:17:09.435Z,57.47
2022-12-09T20:19:36.839Z,71.20
2022-12-09T20:22:04.742Z,63.00
2022-12-09T20:24:31.585Z,65.78
2022-12-09T20:26:58.785Z,70.53
2022-12-09T20:29:25.696Z,71.30
2022-12-09T20:31:53.283Z,61.38
2022-12-09T20:34:20.142Z,58.13
2022-12-09T20:36:48.605Z,73.07
2022-12-09T20:39:20.408Z,70.55
2022-12-09T20:41:48.832Z,66.28
2022-12-09T20:44:17.450Z,63.63
2022-12-09T20:46:50.402Z,67.18
2022-12-09T20:49:20.486Z,58.40
2022-12-09T20:51:49.181Z,68.55
2022-12-09T20:54:16.645Z,69.55
2022-12-09T20:56:43.820Z,74.43
2022-12-09T20:59:13.779Z,70.55
2022-12-09T21:01:40.970Z,58.70
2022-12-09T21:04:08.361Z,69.80
2022-12-09T21:06:37.876Z,71.80
2022-12-09T21:09:09.064Z,58.10
2022-12-09T21:11:38.537Z,56.95
2022-12-09T21:14:07.144Z,65.82
2022-12-09T21:16:37.954Z,109.68
2022-12-09T21:19:07.890Z,121.43
2022-12-09T21:21:36.777Z,122.97
2022-12-09T21:24:06.782Z,98.75
2022-12-09T21:26:33.671Z,78.85
2022-12-09T21:29:01.841Z,118.93
2022-12-09T21:31:32.443Z,96.72
2022-12-09T21:34:03.545Z,92.97
2022-12-09T21:36:34.613Z,106.78
2022-12-09T21:39:03.226Z,86.13
2022-12-09T21:41:33.717Z,69.57
2022-12-09T21:44:04.453Z,69.32
2022-12-09T21:46:34.739Z,87.82
2022-12-09T21:49:04.200Z,81.88
2022-12-09T21:51:34.022Z,130.85
2022-12-09T21:54:01.165Z,108.28
2022-12-09T21:56:32.845Z,107.53
2022-12-09T21:59:01.258Z,73.15
2022-12-09T22:01:31.052Z,71.55
2022-12-09T22:04:00.188Z,57.97
2022-12-09T22:06:28.686Z,52.53
2022-12-09T22:08:57.770Z,57.83
2022-12-09T22:11:30.574Z,54.83
2022-12-09T22:13:59.310Z,51.17
2022-12-09T22:16:29.537Z,47.03
2022-12-09T22:18:58.827Z,43.75
2022-12-09T22:21:29.680Z,45.63
2022-12-09T22:24:00.258Z,50.10
2022-12-09T22:26:27.944Z,50.70
2022-12-09T22:28:56.082Z,57.08
2022-12-09T22:31:27.776Z,62.88
2022-12-09T22:33:56.700Z,62.15
2022-12-09T22:36:23.613Z,74.53
2022-12-09T22:38:50.932Z,85.40
2022-12-09T22:41:21.751Z,84.60
2022-12-09T22:43:50.010Z,95.05
2022-12-09T22:46:25.214Z,93.05
2022-12-09T22:48:52.553Z,96.20
2022-12-09T22:51:22.872Z,92.65
2022-12-09T22:53:51.282Z,90.85
2022-12-09T22:56:19.015Z,86.30
2022-12-09T22:58:46.787Z,82.57
2022-12-09T23:01:25.751Z,90.22
2022-12-09T23:03:54.029Z,57.40
2022-12-09T23:06:21.096Z,58.03
2022-12-09T23:08:48.226Z,66.35
2022-12-09T23:11:18.082Z,83.90
2022-12-09T23:13:45.229Z,89.32
2022-12-09T23:16:17.804Z,85.68
2022-12-09T23:18:45.202Z,69.60
2022-12-09T23:21:15.632Z,61.05
2022-12-09T23:23:43.336Z,83.95
2022-12-09T23:26:14.509Z,64.65
2022-12-09T23:28:44.965Z,53.08
2022-12-09T23:31:13.864Z,51.22
2022-12-09T23:33:42.302Z,49.88
2022-12-09T23:36:16.521Z,47.38
2022-12-09T23:38:44.810Z,44.88
2022-12-09T23:41:12.788Z,48.00
2022-12-09T23:43:39.830Z,49.55
2022-12-09T23:46:15.306Z,52.22
2022-12-09T23:48:47.301Z,48.35
2022-12-09T23:51:27.703Z,54.78
2022-12-09T23:53:57.531Z,52.00
2022-12-09T23:56:26.691Z,54.10
2022-12-09T23:58:59.290Z,55.15
